sensor_id;sensor_type;location;lat;lon;timestamp;P1;durP1;ratioP1;P2;durP2;ratioP2
19255;SDS011;9762;52.490;13.410;2022-12-10T00:01:31;16.07;;;13.17;;
19255;SDS011;9762;52.490;13.410;2022-12-10T00:03:58;17.70;;;12.90;;
19255;SDS011;9762;52.490;13.410;2022-12-10T00:06:29;15.90;;;12.93;;
19255;SDS011;9762;52.490;13.410;2022-12-10T00:08:56;13.33;;;11.37;;
19255;SDS011;9762;52.490;13.410;2022-12-10T00:11:23;15.20;;;12.17;;
19255;SDS011;9762;52.490;13.410;2022-12-10T00:13:50;13.23;;;11.40;;
19255;SDS011;9762;52.490;13.410;2022-12-10T00:16:17;12.87;;;11.33;;
19255;SDS011;9762;52.490;13.410;2022-12-10T00:18:44;15.40;;;12.67;;
19255;SDS011;9762;52.490;13.410;2022-12-10T00:21:11;14.43;;;12.20;;
19255;SDS011;9762;52.490;13.410;2022-12-10T00:23:39;15.73;;;13.00;;
19255;SDS011;9762;52.490;13.410;2022-12-10T00:26:06;17.10;;;12.53;;
19255;SDS011;9762;52.490;13.410;2022-12-10T00:28:32;15.20;;;12.40;;
19255;SDS011;9762;52.490;13.410;2022-12-10T00:31:04;14.43;;;12.50;;
19255;SDS011;9762;52.490;13.410;2022-12-10T00:33:31;14.43;;;12.23;;
19255;SDS011;9762;52.490;13.410;2022-12-10T00:36:01;14.40;;;11.97;;
19255;SDS011;9762;52.490;13.410;2022-12-10T00:38:32;15.87;;;12.47;;
19255;SDS011;9762;52.490;13.410;2022-12-10T00:40:58;14.73;;;12.43;;
19255;SDS011;9762;52.490;13.410;2022-12-10T00:43:24;17.27;;;13.00;;
19255;SDS011;9762;52.490;13.410;2022-12-10T00:45:50;17.77;;;13.47;;
19255;SDS011;9762;52.490;13.410;2022-12-10T00:48:15;15.63;;;12.70;;
19255;SDS011;9762;52.490;13.410;2022-12-10T00:50:41;16.63;;;13.20;;
19255;SDS011;9762;52.490;13.410;2022-12-10T00:53:06;17.03;;;13.70;;
19255;SDS011;9762;52.490;13.410;2022-12-10T00:55:32;17.67;;;13.37;;
19255;SDS011;9762;52.490;13.410;2022-12-10T00:57:58;15.40;;;12.97;;
19255;SDS011;9762;52.490;13.410;2022-12-10T01:00:23;16.97;;;13.73;;
19255;SDS011;9762;52.490;13.410;2022-12-10T01:02:49;16.33;;;13.57;;
19255;SDS011;9762;52.490;13.410;2022-12-10T01:05:15;17.37;;;14.67;;
19255;SDS011;9762;52.490;13.410;2022-12-10T01:07:40;20.00;;;14.77;;
19255;SDS011;9762;52.490;13.410;2022-12-10T01:10:06;18.07;;;13.70;;
19255;SDS011;9762;52.490;13.410;2022-12-10T01:12:32;17.20;;;14.50;;
19255;SDS011;9762;52.490;13.410;2022-12-10T01:14:57;16.20;;;13.73;;
19255;SDS011;9762;52.490;13.410;2022-12-10T01:17:23;19.90;;;14.67;;
19255;SDS011;9762;52.490;13.410;2022-12-10T01:19:49;19.40;;;14.97;;
19255;SDS011;9762;52.490;13.410;2022-12-10T01:22:14;18.90;;;14.90;;
19255;SDS011;9762;52.490;13.410;2022-12-10T01:24:40;18.50;;;14.40;;
19255;SDS011;9762;52.490;13.410;2022-12-10T01:27:05;17.03;;;14.00;;
19255;SDS011;9762;52.490;13.410;2022-12-10T01:29:31;16.97;;;13.77;;
19255;SDS011;9762;52.490;13.410;2022-12-10T01:31:57;16.90;;;13.57;;
19255;SDS011;9762;52.490;13.410;2022-12-10T01:34:23;17.13;;;13.57;;
19255;SDS011;9762;52.490;13.410;2022-12-10T01:36:51;17.63;;;13.47;;
19255;SDS011;9762;52.490;13.410;2022-12-10T01:39:19;17.30;;;13.97;;
19255;SDS011;9762;52.490;13.410;2022-12-10T01:41:48;18.67;;;13.90;;
19255;SDS011;9762;52.490;13.410;2022-12-10T01:46:42;17.50;;;13.80;;
19255;SDS011;9762;52.490;13.410;2022-12-10T01:49:16;19.10;;;13.57;;
19255;SDS011;9762;52.490;13.410;2022-12-10T01:51:47;18.13;;;13.83;;
19255;SDS011;9762;52.490;13.410;2022-12-10T01:54:19;16.00;;;13.60;;
19255;SDS011;9762;52.490;13.410;2022-12-10T01:56:49;17.03;;;13.87;;
19255;SDS011;9762;52.490;13.410;2022-12-10T01:59:21;17.03;;;13.43;;
19255;SDS011;9762;52.490;13.410;2022-12-10T02:02:11;14.67;;;13.10;;
19255;SDS011;9762;52.490;13.410;2022-12-10T02:13:21;17.73;;;13.37;;
19255;SDS011;9762;52.490;13.410;2022-12-10T02:16:04;17.53;;;14.40;;
19255;SDS011;9762;52.490;13.410;2022-12-10T02:18:42;14.87;;;12.70;;
19255;SDS011;9762;52.490;13.410;2022-12-10T02:21:21;14.97;;;12.93;;
19255;SDS011;9762;52.490;13.410;2022-12-10T02:23:59;15.77;;;13.00;;
19255;SDS011;9762;52.490;13.410;2022-12-10T02:29:12;15.87;;;13.77;;
19255;SDS011;9762;52.490;13.410;2022-12-10T02:31:39;16.20;;;13.20;;
19255;SDS011;9762;52.490;13.410;2022-12-10T02:34:11;15.07;;;13.47;;
19255;SDS011;9762;52.490;13.410;2022-12-10T02:36:39;14.03;;;12.13;;
19255;SDS011;9762;52.490;13.410;2022-12-10T02:39:09;16.10;;;13.23;;
19255;SDS011;9762;52.490;13.410;2022-12-10T02:41:38;14.57;;;12.67;;
19255;SDS011;9762;52.490;13.410;2022-12-10T02:44:09;15.53;;;12.67;;
19255;SDS011;9762;52.490;13.410;2022-12-10T02:46:38;16.03;;;13.30;;
19255;SDS011;9762;52.490;13.410;2022-12-10T02:49:06;17.77;;;14.23;;
19255;SDS011;9762;52.490;13.410;2022-12-10T02:51:33;16.00;;;13.40;;
19255;SDS011;9762;52.490;13.410;2022-12-10T02:54:00;18.20;;;13.67;;
19255;SDS011;9762;52.490;13.410;2022-12-10T02:56:29;18.37;;;13.43;;
19255;SDS011;9762;52.490;13.410;2022-12-10T03:08:09;17.63;;;13.90;;
19255;SDS011;9762;52.490;13.410;2022-12-10T03:11:09;17.10;;;14.53;;
19255;SDS011;9762;52.490;13.410;2022-12-10T03:13:16;18.30;;;14.30;;
19255;SDS011;9762;52.490;13.410;2022-12-10T03:15:45;21.30;;;15.00;;
19255;SDS011;9762;52.490;13.410;2022-12-10T03:18:14;20.63;;;15.23;;
19255;SDS011;9762;52.490;13.410;2022-12-10T03:20:44;20.37;;;15.40;;
19255;SDS011;9762;52.490;13.410;2022-12-10T03:23:12;18.00;;;14.43;;
19255;SDS011;9762;52.490;13.410;2022-12-10T03:25:42;21.20;;;16.00;;
19255;SDS011;9762;52.490;13.410;2022-12-10T03:28:09;18.77;;;15.13;;
19255;SDS011;9762;52.490;13.410;2022-12-10T03:30:35;19.73;;;15.13;;
19255;SDS011;9762;52.490;13.410;2022-12-10T03:33:03;18.40;;;14.73;;
19255;SDS011;9762;52.490;13.410;2022-12-10T03:35:29;20.77;;;15.60;;
19255;SDS011;9762;52.490;13.410;2022-12-10T03:37:56;23.43;;;15.37;;
19255;SDS011;9762;52.490;13.410;2022-12-10T03:40:22;18.73;;;14.77;;
19255;SDS011;9762;52.490;13.410;2022-12-10T03:42:49;18.00;;;14.67;;
19255;SDS011;9762;52.490;13.410;2022-12-10T03:45:15;17.80;;;14.27;;
19255;SDS011;9762;52.490;13.410;2022-12-10T03:47:41;18.00;;;14.83;;
19255;SDS011;9762;52.490;13.410;2022-12-10T03:50:08;18.57;;;14.77;;
19255;SDS011;9762;52.490;13.410;2022-12-10T03:52:34;19.07;;;13.30;;
19255;SDS011;9762;52.490;13.410;2022-12-10T03:55:00;19.33;;;15.17;;
19255;SDS011;9762;52.490;13.410;2022-12-10T03:57:27;19.77;;;15.73;;
19255;SDS011;9762;52.490;13.410;2022-12-10T03:59:53;18.57;;;14.50;;
19255;SDS011;9762;52.490;13.410;2022-12-10T04:02:18;19.70;;;15.47;;
19255;SDS011;9762;52.490;13.410;2022-12-10T04:04:44;18.23;;;15.07;;
19255;SDS011;9762;52.490;13.410;2022-12-10T04:07:10;18.00;;;14.93;;
19255;SDS011;9762;52.490;13.410;2022-12-10T04:09:35;19.13;;;15.23;;
19255;SDS011;9762;52.490;13.410;2022-12-10T04:12:01;21.40;;;15.30;;
19255;SDS011;9762;52.490;13.410;2022-12-10T04:14:27;19.43;;;14.63;;
19255;SDS011;9762;52.490;13.410;2022-12-10T04:17:11;18.43;;;14.63;;
19255;SDS011;9762;52.490;13.410;2022-12-10T04:19:37;17.53;;;14.70;;
19255;SDS011;9762;52.490;13.410;2022-12-10T04:22:03;20.27;;;15.20;;
19255;SDS011;9762;52.490;13.410;2022-12-10T04:24:48;17.43;;;14.73;;
19255;SDS011;9762;52.490;13.410;2022-12-10T04:27:52;23.63;;;15.93;;
19255;SDS011;9762;52.490;13.410;2022-12-10T04:30:18;25.23;;;17.07;;
19255;SDS011;9762;52.490;13.410;2022-12-10T04:32:43;22.77;;;16.43;;
19255;SDS011;9762;52.490;13.410;2022-12-10T04:35:09;20.53;;;15.73;;
19255;SDS011;9762;52.490;13.410;2022-12-10T04:37:35;20.53;;;16.67;;
19255;SDS011;9762;52.490;13.410;2022-12-10T04:40:02;19.90;;;16.07;;
19255;SDS011;9762;52.490;13.410;2022-12-10T04:42:28;17.37;;;14.97;;
19255;SDS011;9762;52.490;13.410;2022-12-10T04:44:53;18.93;;;15.00;;
19255;SDS011;9762;52.490;13.410;2022-12-10T04:47:19;18.20;;;14.77;;
19255;SDS011;9762;52.490;13.410;2022-12-10T04:49:45;19.93;;;15.90;;
19255;SDS011;9762;52.490;13.410;2022-12-10T04:52:11;18.13;;;14.97;;
19255;SDS011;9762;52.490;13.410;2022-12-10T04:54:38;19.13;;;15.43;;
19255;SDS011;9762;52.490;13.410;2022-12-10T04:57:05;17.43;;;14.87;;
19255;SDS011;9762;52.490;13.410;2022-12-10T04:59:31;21.67;;;16.53;;
19255;SDS011;9762;52.490;13.410;2022-12-10T05:01:57;18.33;;;15.20;;
19255;SDS011;9762;52.490;13.410;2022-12-10T05:04:22;20.93;;;16.07;;
19255;SDS011;9762;52.490;13.410;2022-12-10T05:06:48;18.87;;;15.37;;
19255;SDS011;9762;52.490;13.410;2022-12-10T05:09:14;17.40;;;14.73;;
19255;SDS011;9762;52.490;13.410;2022-12-10T05:11:40;16.97;;;14.97;;
19255;SDS011;9762;52.490;13.410;2022-12-10T05:14:06;18.40;;;14.90;;
19255;SDS011;9762;52.490;13.410;2022-12-10T05:16:35;19.73;;;15.53;;
19255;SDS011;9762;52.490;13.410;2022-12-10T05:19:00;17.03;;;14.93;;
19255;SDS011;9762;52.490;13.410;2022-12-10T05:21:27;19.63;;;15.70;;
19255;SDS011;9762;52.490;13.410;2022-12-10T05:24:12;17.53;;;14.40;;
19255;SDS011;9762;52.490;13.410;2022-12-10T05:26:38;16.07;;;13.50;;
19255;SDS011;9762;52.490;13.410;2022-12-10T05:29:04;16.07;;;13.67;;
19255;SDS011;9762;52.490;13.410;2022-12-10T05:31:30;15.70;;;13.47;;
19255;SDS011;9762;52.490;13.410;2022-12-10T05:33:56;15.47;;;13.70;;
19255;SDS011;9762;52.490;13.410;2022-12-10T05:36:24;16.00;;;14.07;;
19255;SDS011;9762;52.490;13.410;2022-12-10T05:38:51;18.00;;;14.10;;
19255;SDS011;9762;52.490;13.410;2022-12-10T05:41:19;17.30;;;12.97;;
19255;SDS011;9762;52.490;13.410;2022-12-10T05:43:47;15.33;;;13.70;;
19255;SDS011;9762;52.490;13.410;2022-12-10T05:46:14;16.90;;;13.50;;
19255;SDS011;9762;52.490;13.410;2022-12-10T05:48:41;15.43;;;13.83;;
19255;SDS011;9762;52.490;13.410;2022-12-10T05:51:08;15.87;;;13.63;;
19255;SDS011;9762;52.490;13.410;2022-12-10T05:53:36;16.27;;;13.77;;
19255;SDS011;9762;52.490;13.410;2022-12-10T05:56:02;17.00;;;14.07;;
19255;SDS011;9762;52.490;13.410;2022-12-10T05:58:32;17.50;;;14.27;;
19255;SDS011;9762;52.490;13.410;2022-12-10T06:00:58;16.47;;;14.03;;
19255;SDS011;9762;52.490;13.410;2022-12-10T06:03:26;17.03;;;14.67;;
19255;SDS011;9762;52.490;13.410;2022-12-10T06:05:52;17.20;;;14.20;;
19255;SDS011;9762;52.490;13.410;2022-12-10T06:08:19;15.77;;;13.37;;
19255;SDS011;9762;52.490;13.410;2022-12-10T06:10:44;16.27;;;14.27;;
19255;SDS011;9762;52.490;13.410;2022-12-10T06:13:10;15.93;;;13.50;;
19255;SDS011;9762;52.490;13.410;2022-12-10T06:15:38;15.30;;;13.53;;
19255;SDS011;9762;52.490;13.410;2022-12-10T06:18:05;15.87;;;13.93;;
19255;SDS011;9762;52.490;13.410;2022-12-10T06:20:30;15.10;;;13.40;;
19255;SDS011;9762;52.490;13.410;2022-12-10T06:22:56;14.50;;;12.73;;
19255;SDS011;9762;52.490;13.410;2022-12-10T06:25:22;15.77;;;13.70;;
19255;SDS011;9762;52.490;13.410;2022-12-10T06:27:48;13.77;;;12.10;;
19255;SDS011;9762;52.490;13.410;2022-12-10T06:30:14;14.13;;;12.67;;
19255;SDS011;9762;52.490;13.410;2022-12-10T06:32:39;14.90;;;12.53;;
19255;SDS011;9762;52.490;13.410;2022-12-10T06:35:05;16.30;;;12.97;;
19255;SDS011;9762;52.490;13.410;2022-12-10T06:37:31;16.47;;;13.30;;
19255;SDS011;9762;52.490;13.410;2022-12-10T06:39:57;17.00;;;12.57;;
19255;SDS011;9762;52.490;13.410;2022-12-10T06:42:22;13.90;;;12.40;;
19255;SDS011;9762;52.490;13.410;2022-12-10T06:44:48;14.47;;;12.93;;
19255;SDS011;9762;52.490;13.410;2022-12-10T06:47:13;13.63;;;12.23;;
19255;SDS011;9762;52.490;13.410;2022-12-10T06:49:39;35.20;;;24.03;;
19255;SDS011;9762;52.490;13.410;2022-12-10T06:52:05;23.40;;;17.77;;
19255;SDS011;9762;52.490;13.410;2022-12-10T06:54:31;14.07;;;12.57;;
19255;SDS011;9762;52.490;13.410;2022-12-10T06:56:57;14.40;;;12.60;;
19255;SDS011;9762;52.490;13.410;2022-12-10T06:59:23;30.80;;;23.37;;
19255;SDS011;9762;52.490;13.410;2022-12-10T07:01:49;21.23;;;18.43;;
19255;SDS011;9762;52.490;13.410;2022-12-10T07:04:14;15.50;;;12.43;;
19255;SDS011;9762;52.490;13.410;2022-12-10T07:06:40;12.07;;;10.93;;
19255;SDS011;9762;52.490;13.410;2022-12-10T07:09:07;10.80;;;9.77;;
19255;SDS011;9762;52.490;13.410;2022-12-10T07:11:34;12.70;;;10.40;;
19255;SDS011;9762;52.490;13.410;2022-12-10T07:14:01;11.53;;;10.33;;
19255;SDS011;9762;52.490;13.410;2022-12-10T07:16:27;11.30;;;10.17;;
19255;SDS011;9762;52.490;13.410;2022-12-10T07:18:55;12.37;;;10.80;;
19255;SDS011;9762;52.490;13.410;2022-12-10T07:21:23;11.57;;;9.93;;
19255;SDS011;9762;52.490;13.410;2022-12-10T07:23:54;11.80;;;10.67;;
19255;SDS011;9762;52.490;13.410;2022-12-10T07:26:23;11.53;;;10.43;;
19255;SDS011;9762;52.490;13.410;2022-12-10T07:28:52;13.63;;;11.07;;
19255;SDS011;9762;52.490;13.410;2022-12-10T07:31:18;11.20;;;9.90;;
19255;SDS011;9762;52.490;13.410;2022-12-10T07:33:45;11.43;;;10.27;;
19255;SDS011;9762;52.490;13.410;2022-12-10T07:36:11;12.83;;;11.07;;
19255;SDS011;9762;52.490;13.410;2022-12-10T07:38:37;17.07;;;14.80;;
19255;SDS011;9762;52.490;13.410;2022-12-10T07:41:04;12.67;;;11.40;;
19255;SDS011;9762;52.490;13.410;2022-12-10T07:43:34;11.30;;;10.20;;
19255;SDS011;9762;52.490;13.410;2022-12-10T07:46:04;12.23;;;11.07;;
19255;SDS011;9762;52.490;13.410;2022-12-10T07:48:33;13.43;;;11.10;;
19255;SDS011;9762;52.490;13.410;2022-12-10T07:50:59;11.60;;;10.40;;
19255;SDS011;9762;52.490;13.410;2022-12-10T07:53:25;11.40;;;10.20;;
19255;SDS011;9762;52.490;13.410;2022-12-10T07:55:50;12.20;;;10.93;;
19255;SDS011;9762;52.490;13.410;2022-12-10T07:58:16;10.33;;;9.33;;
19255;SDS011;9762;52.490;13.410;2022-12-10T08:00:42;11.10;;;10.00;;
19255;SDS011;9762;52.490;13.410;2022-12-10T08:03:07;10.50;;;9.40;;
19255;SDS011;9762;52.490;13.410;2022-12-10T08:05:33;10.90;;;9.30;;
19255;SDS011;9762;52.490;13.410;2022-12-10T08:07:59;10.83;;;9.83;;
19255;SDS011;9762;52.490;13.410;2022-12-10T08:10:24;10.80;;;9.30;;
19255;SDS011;9762;52.490;13.410;2022-12-10T08:12:50;11.27;;;10.17;;
19255;SDS011;9762;52.490;13.410;2022-12-10T08:15:15;9.73;;;8.83;;
19255;SDS011;9762;52.490;13.410;2022-12-10T08:17:41;10.87;;;9.83;;
19255;SDS011;9762;52.490;13.410;2022-12-10T08:20:07;10.97;;;9.87;;
19255;SDS011;9762;52.490;13.410;2022-12-10T08:22:33;11.43;;;10.43;;
19255;SDS011;9762;52.490;13.410;2022-12-10T08:25:00;12.60;;;9.87;;
19255;SDS011;9762;52.490;13.410;2022-12-10T08:27:26;11.43;;;10.27;;
19255;SDS011;9762;52.490;13.410;2022-12-10T08:29:51;11.97;;;10.50;;
19255;SDS011;9762;52.490;13.410;2022-12-10T08:32:17;12.30;;;11.00;;
19255;SDS011;9762;52.490;13.410;2022-12-10T08:34:43;12.03;;;10.87;;
19255;SDS011;9762;52.490;13.410;2022-12-10T08:37:09;11.47;;;10.20;;
19255;SDS011;9762;52.490;13.410;2022-12-10T08:39:34;28.60;;;25.53;;
19255;SDS011;9762;52.490;13.410;2022-12-10T08:42:00;33.40;;;29.40;;
19255;SDS011;9762;52.490;13.410;2022-12-10T08:44:26;53.07;;;44.33;;
19255;SDS011;9762;52.490;13.410;2022-12-10T08:46:51;56.30;;;45.77;;
19255;SDS011;9762;52.490;13.410;2022-12-10T08:49:17;40.50;;;32.53;;
19255;SDS011;9762;52.490;13.410;2022-12-10T08:51:42;29.93;;;24.27;;
19255;SDS011;9762;52.490;13.410;2022-12-10T08:54:08;22.20;;;19.90;;
19255;SDS011;9762;52.490;13.410;2022-12-10T08:56:34;17.60;;;15.73;;
19255;SDS011;9762;52.490;13.410;2022-12-10T08:59:00;20.03;;;15.70;;
19255;SDS011;9762;52.490;13.410;2022-12-10T09:01:26;18.83;;;16.60;;
19255;SDS011;9762;52.490;13.410;2022-12-10T09:03:51;19.80;;;17.00;;
19255;SDS011;9762;52.490;13.410;2022-12-10T09:06:18;16.10;;;14.07;;
19255;SDS011;9762;52.490;13.410;2022-12-10T09:08:45;14.57;;;12.27;;
19255;SDS011;9762;52.490;13.410;2022-12-10T09:11:12;12.30;;;10.97;;
19255;SDS011;9762;52.490;13.410;2022-12-10T09:13:43;12.67;;;11.33;;
19255;SDS011;9762;52.490;13.410;2022-12-10T09:16:08;13.13;;;11.83;;
19255;SDS011;9762;52.490;13.410;2022-12-10T09:18:35;14.67;;;11.60;;
19255;SDS011;9762;52.490;13.410;2022-12-10T09:21:04;12.83;;;11.63;;
19255;SDS011;9762;52.490;13.410;2022-12-10T09:23:35;14.23;;;12.73;;
19255;SDS011;9762;52.490;13.410;2022-12-10T09:26:01;12.97;;;11.67;;
19255;SDS011;9762;52.490;13.410;2022-12-10T09:28:31;14.13;;;11.50;;
19255;SDS011;9762;52.490;13.410;2022-12-10T09:30:57;14.70;;;11.23;;
19255;SDS011;9762;52.490;13.410;2022-12-10T09:33:24;12.07;;;10.90;;
19255;SDS011;9762;52.490;13.410;2022-12-10T09:35:51;13.23;;;11.83;;
19255;SDS011;9762;52.490;13.410;2022-12-10T09:38:17;14.93;;;13.43;;
19255;SDS011;9762;52.490;13.410;2022-12-10T09:43:42;16.97;;;13.60;;
19255;SDS011;9762;52.490;13.410;2022-12-10T09:51:50;12.70;;;10.93;;
19255;SDS011;9762;52.490;13.410;2022-12-10T09:54:25;45.83;;;31.53;;
19255;SDS011;9762;52.490;13.410;2022-12-10T09:56:52;14.70;;;13.20;;
19255;SDS011;9762;52.490;13.410;2022-12-10T09:59:24;14.57;;;13.10;;
19255;SDS011;9762;52.490;13.410;2022-12-10T10:02:11;14.93;;;13.03;;
19255;SDS011;9762;52.490;13.410;2022-12-10T10:04:48;16.10;;;14.07;;
19255;SDS011;9762;52.490;13.410;2022-12-10T10:07:22;16.27;;;13.60;;
19255;SDS011;9762;52.490;13.410;2022-12-10T10:09:51;17.90;;;13.63;;
19255;SDS011;9762;52.490;13.410;2022-12-10T10:12:21;17.83;;;14.87;;
19255;SDS011;9762;52.490;13.410;2022-12-10T10:14:47;15.60;;;13.47;;
19255;SDS011;9762;52.490;13.410;2022-12-10T10:17:20;13.33;;;11.93;;
19255;SDS011;9762;52.490;13.410;2022-12-10T10:19:56;14.33;;;12.63;;
19255;SDS011;9762;52.490;13.410;2022-12-10T10:22:22;13.77;;;11.77;;
19255;SDS011;9762;52.490;13.410;2022-12-10T10:24:48;14.83;;;13.20;;
19255;SDS011;9762;52.490;13.410;2022-12-10T10:27:18;14.73;;;13.13;;
19255;SDS011;9762;52.490;13.410;2022-12-10T10:29:53;14.37;;;12.40;;
19255;SDS011;9762;52.490;13.410;2022-12-10T10:35:00;14.57;;;12.57;;
19255;SDS011;9762;52.490;13.410;2022-12-10T10:37:27;15.20;;;13.63;;
19255;SDS011;9762;52.490;13.410;2022-12-10T10:39:55;14.17;;;12.07;;
19255;SDS011;9762;52.490;13.410;2022-12-10T10:42:25;14.10;;;12.60;;
19255;SDS011;9762;52.490;13.410;2022-12-10T10:44:58;13.17;;;11.87;;
19255;SDS011;9762;52.490;13.410;2022-12-10T10:47:34;12.00;;;10.80;;
19255;SDS011;9762;52.490;13.410;2022-12-10T10:50:03;12.97;;;11.70;;
19255;SDS011;9762;52.490;13.410;2022-12-10T10:52:34;12.70;;;11.40;;
19255;SDS011;9762;52.490;13.410;2022-12-10T10:55:01;13.07;;;11.40;;
19255;SDS011;9762;52.490;13.410;2022-12-10T10:57:29;12.83;;;11.60;;
19255;SDS011;9762;52.490;13.410;2022-12-10T11:00:19;14.60;;;13.07;;
19255;SDS011;9762;52.490;13.410;2022-12-10T11:02:49;13.30;;;12.00;;
19255;SDS011;9762;52.490;13.410;2022-12-10T11:05:22;12.83;;;11.33;;
19255;SDS011;9762;52.490;13.410;2022-12-10T11:08:00;13.70;;;12.30;;
19255;SDS011;9762;52.490;13.410;2022-12-10T11:10:30;13.00;;;11.70;;
19255;SDS011;9762;52.490;13.410;2022-12-10T11:12:57;13.23;;;11.93;;
19255;SDS011;9762;52.490;13.410;2022-12-10T11:17:56;15.03;;;12.87;;
19255;SDS011;9762;52.490;13.410;2022-12-10T11:20:22;14.83;;;13.27;;
19255;SDS011;9762;52.490;13.410;2022-12-10T11:22:51;17.20;;;12.57;;
19255;SDS011;9762;52.490;13.410;2022-12-10T11:28:26;51.10;;;34.33;;
19255;SDS011;9762;52.490;13.410;2022-12-10T11:31:05;15.03;;;13.10;;
19255;SDS011;9762;52.490;13.410;2022-12-10T11:36:48;13.13;;;11.20;;
19255;SDS011;9762;52.490;13.410;2022-12-10T11:47:35;14.80;;;12.37;;
19255;SDS011;9762;52.490;13.410;2022-12-10T11:52:55;14.73;;;13.07;;
19255;SDS011;9762;52.490;13.410;2022-12-10T12:14:50;12.67;;;11.30;;
19255;SDS011;9762;52.490;13.410;2022-12-10T12:17:24;13.73;;;12.33;;
19255;SDS011;9762;52.490;13.410;2022-12-10T12:19:57;26.00;;;13.17;;
19255;SDS011;9762;52.490;13.410;2022-12-10T12:22:31;21.07;;;15.10;;
19255;SDS011;9762;52.490;13.410;2022-12-10T12:25:09;40.90;;;31.90;;
19255;SDS011;9762;52.490;13.410;2022-12-10T12:28:01;16.47;;;13.67;;
19255;SDS011;9762;52.490;13.410;2022-12-10T12:30:35;14.03;;;12.40;;
19255;SDS011;9762;52.490;13.410;2022-12-10T12:33:29;13.47;;;12.10;;
19255;SDS011;9762;52.490;13.410;2022-12-10T12:36:28;14.60;;;11.63;;
19255;SDS011;9762;52.490;13.410;2022-12-10T12:38:51;13.20;;;11.80;;
19255;SDS011;9762;52.490;13.410;2022-12-10T12:41:40;12.00;;;10.67;;
19255;SDS011;9762;52.490;13.410;2022-12-10T12:46:55;13.17;;;11.53;;
19255;SDS011;9762;52.490;13.410;2022-12-10T12:49:29;12.07;;;10.73;;
19255;SDS011;9762;52.490;13.410;2022-12-10T12:52:19;12.00;;;10.70;;
19255;SDS011;9762;52.490;13.410;2022-12-10T12:54:51;11.87;;;10.77;;
19255;SDS011;9762;52.490;13.410;2022-12-10T12:57:32;14.57;;;12.60;;
19255;SDS011;9762;52.490;13.410;2022-12-10T13:00:14;14.43;;;12.17;;
19255;SDS011;9762;52.490;13.410;2022-12-10T13:05:36;12.47;;;11.17;;
19255;SDS011;9762;52.490;13.410;2022-12-10T13:19:28;16.67;;;12.73;;
19255;SDS011;9762;52.490;13.410;2022-12-10T13:22:00;13.13;;;11.80;;
19255;SDS011;9762;52.490;13.410;2022-12-10T13:29:54;18.70;;;14.87;;
19255;SDS011;9762;52.490;13.410;2022-12-10T13:32:23;16.27;;;13.73;;
19255;SDS011;9762;52.490;13.410;2022-12-10T13:37:53;14.83;;;12.53;;
19255;SDS011;9762;52.490;13.410;2022-12-10T13:48:58;13.67;;;12.27;;
19255;SDS011;9762;52.490;13.410;2022-12-10T13:54:41;13.57;;;12.27;;
19255;SDS011;9762;52.490;13.410;2022-12-10T14:00:31;18.00;;;13.37;;
19255;SDS011;9762;52.490;13.410;2022-12-10T14:11:28;18.40;;;12.83;;
19255;SDS011;9762;52.490;13.410;2022-12-10T14:13:58;22.80;;;16.83;;
19255;SDS011;9762;52.490;13.410;2022-12-10T14:16:27;62.10;;;40.57;;
19255;SDS011;9762;52.490;13.410;2022-12-10T14:19:10;24.97;;;18.17;;
19255;SDS011;9762;52.490;13.410;2022-12-10T14:21:39;26.80;;;17.80;;
19255;SDS011;9762;52.490;13.410;2022-12-10T14:24:12;21.57;;;16.17;;
19255;SDS011;9762;52.490;13.410;2022-12-10T14:26:56;20.97;;;15.43;;
19255;SDS011;9762;52.490;13.410;2022-12-10T14:29:23;21.53;;;16.63;;
19255;SDS011;9762;52.490;13.410;2022-12-10T14:31:49;19.07;;;14.90;;
19255;SDS011;9762;52.490;13.410;2022-12-10T14:34:17;18.27;;;14.77;;
19255;SDS011;9762;52.490;13.410;2022-12-10T14:36:46;18.83;;;15.10;;
19255;SDS011;9762;52.490;13.410;2022-12-10T14:39:21;24.47;;;17.57;;
19255;SDS011;9762;52.490;13.410;2022-12-10T14:41:56;22.50;;;17.77;;
19255;SDS011;9762;52.490;13.410;2022-12-10T14:44:24;22.50;;;16.73;;
19255;SDS011;9762;52.490;13.410;2022-12-10T14:46:51;21.33;;;16.97;;
19255;SDS011;9762;52.490;13.410;2022-12-10T14:49:20;30.90;;;20.53;;
19255;SDS011;9762;52.490;13.410;2022-12-10T14:51:50;30.67;;;22.03;;
19255;SDS011;9762;52.490;13.410;2022-12-10T14:56:56;23.53;;;18.17;;
19255;SDS011;9762;52.490;13.410;2022-12-10T14:59:30;26.73;;;19.37;;
19255;SDS011;9762;52.490;13.410;2022-12-10T15:02:11;25.00;;;17.93;;
19255;SDS011;9762;52.490;13.410;2022-12-10T15:04:42;29.00;;;16.23;;
19255;SDS011;9762;52.490;13.410;2022-12-10T15:07:14;25.27;;;17.50;;
19255;SDS011;9762;52.490;13.410;2022-12-10T15:09:47;31.77;;;21.27;;
19255;SDS011;9762;52.490;13.410;2022-12-10T15:15:12;25.43;;;17.50;;
19255;SDS011;9762;52.490;13.410;2022-12-10T15:17:43;22.33;;;15.90;;
19255;SDS011;9762;52.490;13.410;2022-12-10T15:21:05;27.03;;;17.73;;
19255;SDS011;9762;52.490;13.410;2022-12-10T15:28:38;18.97;;;14.20;;
19255;SDS011;9762;52.490;13.410;2022-12-10T15:31:09;25.17;;;14.63;;
19255;SDS011;9762;52.490;13.410;2022-12-10T15:33:36;24.07;;;14.03;;
19255;SDS011;9762;52.490;13.410;2022-12-10T15:41:54;35.33;;;19.93;;
19255;SDS011;9762;52.490;13.410;2022-12-10T15:49:50;27.93;;;15.80;;
19255;SDS011;9762;52.490;13.410;2022-12-10T15:54:46;25.97;;;16.13;;
19255;SDS011;9762;52.490;13.410;2022-12-10T15:57:18;29.17;;;15.77;;
19255;SDS011;9762;52.490;13.410;2022-12-10T15:59:47;25.50;;;15.47;;
19255;SDS011;9762;52.490;13.410;2022-12-10T16:04:58;26.37;;;16.03;;
19255;SDS011;9762;52.490;13.410;2022-12-10T16:07:23;35.40;;;15.80;;
19255;SDS011;9762;52.490;13.410;2022-12-10T16:09:49;27.50;;;15.87;;
19255;SDS011;9762;52.490;13.410;2022-12-10T16:12:15;27.90;;;15.70;;
19255;SDS011;9762;52.490;13.410;2022-12-10T16:14:42;29.23;;;15.90;;
19255;SDS011;9762;52.490;13.410;2022-12-10T16:17:16;30.93;;;16.90;;
19255;SDS011;9762;52.490;13.410;2022-12-10T16:19:42;29.30;;;17.33;;
19255;SDS011;9762;52.490;13.410;2022-12-10T16:22:08;37.73;;;20.33;;
19255;SDS011;9762;52.490;13.410;2022-12-10T16:24:34;38.27;;;19.13;;
19255;SDS011;9762;52.490;13.410;2022-12-10T16:26:59;33.30;;;19.40;;
19255;SDS011;9762;52.490;13.410;2022-12-10T16:29:25;34.43;;;18.73;;
19255;SDS011;9762;52.490;13.410;2022-12-10T16:31:51;33.80;;;18.73;;
19255;SDS011;9762;52.490;13.410;2022-12-10T16:34:16;31.57;;;17.87;;
19255;SDS011;9762;52.490;13.410;2022-12-10T16:36:42;29.60;;;18.67;;
19255;SDS011;9762;52.490;13.410;2022-12-10T16:39:07;40.07;;;19.20;;
19255;SDS011;9762;52.490;13.410;2022-12-10T16:41:34;36.27;;;18.63;;
19255;SDS011;9762;52.490;13.410;2022-12-10T16:44:00;41.00;;;18.93;;
19255;SDS011;9762;52.490;13.410;2022-12-10T16:46:25;30.13;;;16.90;;
19255;SDS011;9762;52.490;13.410;2022-12-10T16:48:51;41.07;;;19.43;;
19255;SDS011;9762;52.490;13.410;2022-12-10T16:53:51;35.00;;;18.53;;
19255;SDS011;9762;52.490;13.410;2022-12-10T16:56:16;34.27;;;19.53;;
19255;SDS011;9762;52.490;13.410;2022-12-10T16:58:43;38.40;;;19.73;;
19255;SDS011;9762;52.490;13.410;2022-12-10T17:01:17;38.60;;;20.00;;
19255;SDS011;9762;52.490;13.410;2022-12-10T17:03:52;37.43;;;19.17;;